Time;durP1;ratioP1;P1;durP2;ratioP2;P2;SDS_P1;SDS_P2;PMS_P1;PMS_P2;Temp;Humidity;BMP_temperature;BMP_pressure;BME280_temperature;BME280_humidity;BME280_pressure;Samples;Min_cycle;Max_cycle;Signal;HPM_P1;HPM_P2
2023/05/22 00:00:28;;;;;;;17.33;15.00;;;17.50;99.90;;;;;;5097134;28;20175;-44
2023/05/22 00:02:53;;;;;;;18.83;15.63;;;17.40;99.90;;;;;;5097190;28;20666;-45
2023/05/22 00:05:19;;;;;;;19.67;15.27;;;17.40;99.90;;;;;;5096705;28;20540;-44
2023/05/22 00:07:45;;;;;;;19.30;15.67;;;17.40;99.90;;;;;;5096977;28;20179;-44
2023/05/22 00:10:11;;;;;;;20.27;15.00;;;17.30;99.90;;;;;;5096915;28;20264;-46
2023/05/22 00:12:37;;;;;;;17.80;15.07;;;17.20;99.90;;;;;;5096529;28;20647;-47
2023/05/22 00:15:04;;;;;;;19.53;15.27;;;17.20;99.90;;;;;;5096594;28;20604;-46
2023/05/22 00:17:30;;;;;;;22.50;15.43;;;17.20;99.90;;;;;;5096902;28;20265;-45
2023/05/22 00:20:02;;;;;;;17.20;15.00;;;17.20;99.90;;;;;;5095330;28;20207;-47
2023/05/22 00:22:30;;;;;;;17.83;14.07;;;17.10;99.90;;;;;;5097242;28;20167;-45
2023/05/22 00:24:56;;;;;;;16.93;14.67;;;17.10;99.90;;;;;;5096488;28;20526;-45
2023/05/22 00:27:22;;;;;;;18.50;14.77;;;17.10;99.90;;;;;;5096403;28;20171;-46
2023/05/22 00:29:47;;;;;;;16.87;15.07;;;17.10;99.90;;;;;;5097108;28;20197;-46
2023/05/22 00:32:13;;;;;;;17.03;13.93;;;17.00;99.90;;;;;;5096642;28;20170;-46
2023/05/22 00:34:38;;;;;;;16.33;14.00;;;17.00;99.90;;;;;;5097486;28;20595;-46
2023/05/22 00:37:04;;;;;;;16.90;14.20;;;17.00;99.90;;;;;;5096865;28;20257;-45
2023/05/22 00:39:30;;;;;;;18.53;13.83;;;17.00;99.90;;;;;;5096246;28;20567;-44
2023/05/22 00:41:55;;;;;;;18.80;14.23;;;16.90;99.90;;;;;;5096089;28;20187;-43
2023/05/22 00:44:22;;;;;;;18.23;14.23;;;16.90;99.90;;;;;;5095901;28;20203;-44
2023/05/22 00:46:48;;;;;;;20.37;14.10;;;16.90;99.90;;;;;;5096278;28;20179;-46
2023/05/22 00:49:13;;;;;;;20.37;13.77;;;16.80;99.90;;;;;;5094522;28;20185;-46
2023/05/22 00:51:39;;;;;;;15.63;12.90;;;16.80;99.90;;;;;;5094498;28;20197;-42
2023/05/22 00:54:05;;;;;;;14.60;12.60;;;16.80;99.90;;;;;;5096359;28;20269;-45
2023/05/22 00:56:31;;;;;;;16.30;12.83;;;16.80;99.90;;;;;;5096140;28;20678;-43
2023/05/22 00:58:57;;;;;;;16.80;14.20;;;16.80;99.90;;;;;;5095127;28;20179;-44
2023/05/22 01:01:25;;;;;;;17.73;13.97;;;16.70;99.90;;;;;;5095839;28;20227;-45
2023/05/22 01:03:52;;;;;;;14.10;12.50;;;16.70;99.90;;;;;;5095538;28;20207;-45
2023/05/22 01:06:20;;;;;;;16.80;13.70;;;16.70;99.90;;;;;;5095514;28;20194;-45
2023/05/22 01:08:46;;;;;;;16.17;13.63;;;16.70;99.90;;;;;;5095860;28;20187;-43
2023/05/22 01:11:34;;;;;;;16.37;12.77;;;16.70;99.90;;;;;;5095393;28;20190;-45
2023/05/22 01:14:24;;;;;;;14.37;12.87;;;16.60;99.90;;;;;;5095884;28;20191;-44
2023/05/22 01:17:02;;;;;;;14.93;12.43;;;16.50;99.90;;;;;;5095601;28;20159;-46
2023/05/22 01:19:59;;;;;;;16.00;12.40;;;16.60;99.90;;;;;;5095610;28;20199;-44
2023/05/22 01:22:50;;;;;;;14.83;12.23;;;16.50;99.90;;;;;;5080989;28;20191;-45
2023/05/22 01:25:25;;;;;;;15.80;13.33;;;16.50;99.90;;;;;;5095501;28;20167;-44
2023/05/22 01:28:05;;;;;;;13.73;12.27;;;16.50;99.90;;;;;;5095781;28;20688;-44
2023/05/22 01:30:34;;;;;;;15.30;13.03;;;16.40;99.90;;;;;;5095651;28;20214;-45
2023/05/22 01:33:01;;;;;;;17.27;12.83;;;16.40;99.90;;;;;;5095015;28;20198;-46
2023/05/22 01:35:29;;;;;;;15.37;13.47;;;16.40;99.90;;;;;;5095083;28;20171;-45
2023/05/22 01:37:56;;;;;;;15.03;12.70;;;16.30;99.90;;;;;;5095245;28;20179;-45
2023/05/22 01:40:22;;;;;;;14.43;12.80;;;16.30;99.90;;;;;;5094750;28;20719;-45
2023/05/22 01:42:48;;;;;;;15.73;13.33;;;16.30;99.90;;;;;;5095100;28;20195;-44
2023/05/22 01:45:14;;;;;;;15.30;11.97;;;16.30;99.90;;;;;;5094965;28;20265;-44
2023/05/22 01:47:40;;;;;;;15.33;13.37;;;16.30;99.90;;;;;;5095052;28;20206;-44
2023/05/22 01:50:06;;;;;;;14.50;11.83;;;16.20;99.90;;;;;;5094946;28;20731;-46
2023/05/22 01:52:37;;;;;;;15.77;14.17;;;16.20;99.90;;;;;;5094904;28;20205;-45
2023/05/22 01:55:33;;;;;;;17.63;14.93;;;16.10;99.90;;;;;;5094729;28;20195;-46
2023/05/22 01:58:15;;;;;;;17.57;14.37;;;16.10;99.90;;;;;;5094569;28;20179;-45
2023/05/22 02:00:44;;;;;;;18.47;13.37;;;16.10;99.90;;;;;;5094892;28;20163;-44
2023/05/22 02:03:18;;;;;;;14.50;12.60;;;16.00;99.90;;;;;;5094375;28;20233;-45
2023/05/22 02:05:45;;;;;;;16.60;13.00;;;16.00;99.90;;;;;;5094813;28;20567;-45
2023/05/22 02:08:13;;;;;;;17.70;14.77;;;15.90;99.90;;;;;;5093175;28;20181;-44
2023/05/22 02:10:39;;;;;;;19.43;16.07;;;15.90;99.90;;;;;;5094135;28;20654;-43
2023/05/22 02:13:05;;;;;;;18.73;14.63;;;15.90;99.90;;;;;;5094483;28;20285;-43
2023/05/22 02:15:32;;;;;;;19.80;16.20;;;15.90;99.90;;;;;;5094475;28;20679;-44
2023/05/22 02:17:58;;;;;;;19.40;16.83;;;15.80;99.90;;;;;;5094254;28;20171;-43
2023/05/22 02:20:24;;;;;;;20.67;17.10;;;15.80;99.90;;;;;;5094368;28;20248;-43
2023/05/22 02:22:50;;;;;;;21.23;17.20;;;15.70;99.90;;;;;;5094260;28;20211;-44
2023/05/22 02:25:16;;;;;;;19.20;16.43;;;15.70;99.90;;;;;;5094631;28;20178;-45
2023/05/22 02:27:46;;;;;;;21.50;17.93;;;15.60;99.90;;;;;;5092901;28;20559;-45
2023/05/22 02:30:13;;;;;;;20.60;17.43;;;15.60;99.90;;;;;;5094322;28;20722;-43
2023/05/22 02:32:39;;;;;;;22.20;17.47;;;15.50;99.90;;;;;;5094025;28;20266;-45
2023/05/22 02:35:06;;;;;;;26.50;17.80;;;15.50;99.90;;;;;;5095000;28;20199;-45
2023/05/22 02:37:32;;;;;;;23.40;18.43;;;15.50;99.90;;;;;;5093998;28;20167;-45
2023/05/22 02:39:58;;;;;;;22.37;17.83;;;15.40;99.90;;;;;;5092679;28;20685;-46
2023/05/22 02:42:23;;;;;;;20.83;17.60;;;15.30;99.90;;;;;;5094758;28;20179;-44
2023/05/22 02:44:49;;;;;;;23.37;17.73;;;15.30;99.90;;;;;;5094324;28;20545;-45
2023/05/22 02:47:15;;;;;;;22.40;16.50;;;15.30;99.90;;;;;;5094181;28;20183;-45
2023/05/22 02:49:40;;;;;;;23.97;17.13;;;15.30;99.90;;;;;;5094213;28;20206;-45
2023/05/22 02:52:06;;;;;;;23.30;16.57;;;15.20;99.90;;;;;;5094028;28;20216;-44
2023/05/22 02:54:32;;;;;;;20.13;15.40;;;15.30;99.90;;;;;;5094192;28;20226;-45
2023/05/22 02:56:57;;;;;;;20.27;15.47;;;15.20;99.90;;;;;;5094394;28;20198;-45
2023/05/22 02:59:23;;;;;;;23.53;16.03;;;15.10;99.90;;;;;;5094136;28;20171;-44
2023/05/22 03:01:49;;;;;;;22.87;16.20;;;15.10;99.90;;;;;;5094321;28;20178;-44
2023/05/22 03:04:15;;;;;;;19.20;15.57;;;15.10;99.90;;;;;;5094197;28;20198;-45
2023/05/22 03:06:40;;;;;;;21.10;15.37;;;15.10;99.90;;;;;;5100523;28;20182;-45
2023/05/22 03:09:07;;;;;;;20.87;15.90;;;15.10;99.90;;;;;;5106810;28;20208;-46
2023/05/22 03:11:33;;;;;;;20.00;15.33;;;15.00;99.90;;;;;;5101688;28;20267;-44
2023/05/22 03:13:59;;;;;;;19.10;15.33;;;15.00;99.90;;;;;;5094233;28;20229;-44
2023/05/22 03:16:25;;;;;;;24.50;15.47;;;15.00;99.90;;;;;;5093994;28;20591;-45
2023/05/22 03:19:10;;;;;;;29.53;15.23;;;15.00;99.90;;;;;;5093742;28;20249;-46
2023/05/22 03:21:37;;;;;;;21.00;15.47;;;15.00;99.90;;;;;;5094063;28;20186;-44
2023/05/22 03:24:03;;;;;;;19.50;15.07;;;14.90;99.90;;;;;;5097950;28;20568;-44
2023/05/22 03:26:29;;;;;;;18.70;14.87;;;14.90;99.90;;;;;;5098037;28;20183;-42
2023/05/22 03:28:55;;;;;;;20.63;15.43;;;14.90;99.90;;;;;;5098009;28;20178;-42
2023/05/22 03:31:21;;;;;;;17.80;14.77;;;14.90;99.90;;;;;;5097668;28;20214;-45
2023/05/22 03:33:47;;;;;;;21.43;15.03;;;14.80;99.90;;;;;;5097850;28;20206;-44
2023/05/22 03:36:13;;;;;;;22.20;14.67;;;14.80;99.90;;;;;;5097564;28;20178;-43
2023/05/22 03:38:38;;;;;;;19.03;14.33;;;14.80;99.90;;;;;;5097407;28;20178;-45
2023/05/22 03:41:04;;;;;;;19.77;15.40;;;14.80;99.90;;;;;;5097776;28;20194;-44
2023/05/22 03:43:31;;;;;;;20.03;15.33;;;14.70;99.90;;;;;;5097291;28;20253;-43
2023/05/22 03:45:58;;;;;;;20.80;15.43;;;14.70;99.90;;;;;;5097763;28;20213;-43
2023/05/22 03:48:23;;;;;;;19.50;14.57;;;14.70;99.90;;;;;;5096025;28;20183;-45
2023/05/22 03:50:49;;;;;;;18.43;14.43;;;14.70;99.90;;;;;;5097190;28;20214;-44
2023/05/22 03:53:15;;;;;;;23.63;15.60;;;14.70;99.90;;;;;;5097109;28;20190;-43
2023/05/22 03:55:41;;;;;;;25.47;15.03;;;14.60;99.90;;;;;;5095764;28;20171;-45
2023/05/22 03:58:07;;;;;;;17.47;14.43;;;14.60;99.90;;;;;;5097070;28;20183;-45
2023/05/22 04:00:33;;;;;;;22.20;15.03;;;14.70;99.90;;;;;;5097100;28;20175;-43
2023/05/22 04:02:59;;;;;;;22.77;15.33;;;14.70;99.90;;;;;;5097196;28;20547;-46
2023/05/22 04:05:25;;;;;;;23.97;14.87;;;14.70;99.90;;;;;;5097183;28;20183;-44
2023/05/22 04:07:50;;;;;;;24.03;15.60;;;14.70;99.90;;;;;;5096923;28;20547;-45
2023/05/22 04:10:16;;;;;;;20.73;15.47;;;14.70;99.90;;;;;;5096888;28;20605;-45
2023/05/22 04:12:41;;;;;;;20.60;14.67;;;14.70;99.90;;;;;;5096698;28;20678;-44
2023/05/22 04:15:08;;;;;;;23.07;16.27;;;14.70;99.90;;;;;;5096763;28;20185;-47
2023/05/22 04:17:39;;;;;;;28.07;15.77;;;14.70;99.90;;;;;;5096593;28;20187;-45
2023/05/22 04:20:05;;;;;;;22.90;16.43;;;14.70;99.90;;;;;;5096653;28;20638;-43
2023/05/22 04:22:32;;;;;;;26.63;16.10;;;14.70;99.90;;;;;;5096679;28;20175;-44
2023/05/22 04:24:57;;;;;;;27.10;17.67;;;14.80;99.90;;;;;;5097342;28;20545;-46
2023/05/22 04:27:23;;;;;;;22.37;16.73;;;14.80;99.90;;;;;;5095434;28;20187;-44
2023/05/22 04:29:49;;;;;;;23.80;16.83;;;14.80;99.90;;;;;;5096711;28;20202;-45
2023/05/22 04:32:20;;;;;;;27.53;16.67;;;14.80;99.90;;;;;;5096989;28;20189;-44
2023/05/22 04:34:49;;;;;;;27.67;17.57;;;14.80;99.90;;;;;;5096487;28;20539;-45
2023/05/22 04:37:17;;;;;;;27.27;17.70;;;14.80;99.90;;;;;;5096343;28;20167;-46
2023/05/22 04:39:44;;;;;;;28.30;16.70;;;14.80;99.90;;;;;;5096104;28;20190;-44
2023/05/22 04:42:13;;;;;;;31.37;18.03;;;14.80;99.90;;;;;;5096275;28;20187;-44
2023/05/22 04:44:39;;;;;;;33.03;19.27;;;14.80;99.90;;;;;;5096336;28;20253;-44
2023/05/22 04:47:06;;;;;;;26.53;17.30;;;14.80;99.90;;;;;;5096077;28;20594;-45
2023/05/22 04:49:32;;;;;;;30.83;18.27;;;14.90;99.90;;;;;;5096238;28;20207;-44
2023/05/22 04:51:58;;;;;;;30.67;18.70;;;14.90;99.90;;;;;;5096040;28;20643;-45
2023/05/22 04:54:23;;;;;;;27.47;17.93;;;14.90;99.90;;;;;;5096966;28;20221;-43
2023/05/22 04:56:51;;;;;;;32.37;19.43;;;14.90;99.90;;;;;;5095883;28;20175;-44
2023/05/22 04:59:18;;;;;;;34.80;19.00;;;14.90;99.90;;;;;;5095973;28;20221;-45
2023/05/22 05:01:47;;;;;;;31.50;19.37;;;14.90;99.90;;;;;;5095871;28;20647;-45
2023/05/22 05:04:13;;;;;;;33.93;20.33;;;14.90;99.90;;;;;;5096117;28;20195;-45
2023/05/22 05:06:38;;;;;;;32.60;19.23;;;15.00;99.90;;;;;;5095924;28;20176;-45
2023/05/22 05:09:04;;;;;;;30.90;21.27;;;14.90;99.90;;;;;;5094485;28;20179;-45
2023/05/22 05:11:30;;;;;;;35.00;21.63;;;15.00;99.90;;;;;;5095861;28;20216;-44
2023/05/22 05:13:55;;;;;;;35.07;20.60;;;15.00;99.90;;;;;;5095795;28;20636;-44
2023/05/22 05:16:23;;;;;;;36.33;20.63;;;15.00;99.90;;;;;;5094568;28;20171;-43
2023/05/22 05:18:50;;;;;;;32.87;21.73;;;15.00;99.90;;;;;;5094351;28;20245;-46
2023/05/22 05:21:16;;;;;;;35.00;20.70;;;15.00;99.90;;;;;;5095735;28;20724;-46
2023/05/22 05:23:42;;;;;;;33.17;21.20;;;15.00;99.90;;;;;;5095623;28;20203;-44
2023/05/22 05:26:08;;;;;;;36.57;22.13;;;15.00;99.90;;;;;;5096453;28;20642;-45
2023/05/22 05:28:33;;;;;;;34.27;21.03;;;15.00;99.90;;;;;;5096035;28;20179;-45
2023/05/22 05:30:59;;;;;;;34.30;21.33;;;15.00;99.90;;;;;;5095980;28;20249;-45
2023/05/22 05:33:25;;;;;;;34.03;20.87;;;15.00;99.90;;;;;;5095206;28;20198;-43
2023/05/22 05:35:51;;;;;;;35.50;22.00;;;15.00;99.90;;;;;;5095526;28;20179;-45
2023/05/22 05:38:17;;;;;;;31.43;21.47;;;15.10;99.90;;;;;;5095124;28;20167;-50
2023/05/22 05:40:46;;;;;;;33.47;22.03;;;15.10;99.90;;;;;;5094950;28;20199;-51
2023/05/22 05:43:14;;;;;;;35.97;22.13;;;15.10;99.90;;;;;;5094890;28;20282;-51
2023/05/22 05:45:42;;;;;;;32.67;20.27;;;15.20;99.90;;;;;;5094580;28;20186;-50
2023/05/22 05:48:08;;;;;;;33.83;21.67;;;15.20;99.90;;;;;;5095416;28;20178;-51
2023/05/22 05:50:34;;;;;;;32.00;21.83;;;15.20;99.90;;;;;;5094960;28;20701;-45
2023/05/22 05:53:00;;;;;;;33.93;22.03;;;15.20;99.90;;;;;;5094934;28;20282;-46
2023/05/22 05:55:25;;;;;;;33.20;22.20;;;15.20;99.90;;;;;;5094812;28;20178;-45
2023/05/22 05:57:51;;;;;;;34.00;21.00;;;15.30;99.90;;;;;;5095111;28;20186;-44
2023/05/22 06:00:18;;;;;;;36.27;22.20;;;15.30;99.90;;;;;;5094955;28;20639;-45
2023/05/22 06:02:44;;;;;;;34.30;22.13;;;15.30;99.90;;;;;;5094810;28;20203;-43
2023/05/22 06:05:10;;;;;;;33.37;21.97;;;15.30;99.90;;;;;;5094748;28;20262;-44
2023/05/22 06:07:39;;;;;;;34.03;22.63;;;15.40;99.90;;;;;;5094890;28;20210;-50
2023/05/22 06:10:05;;;;;;;37.53;23.00;;;15.40;99.90;;;;;;5095010;28;20198;-51
2023/05/22 06:12:31;;;;;;;34.93;22.17;;;15.40;99.90;;;;;;5094911;28;20179;-51
2023/05/22 06:14:57;;;;;;;37.07;23.87;;;15.50;99.90;;;;;;5094589;28;20536;-51
2023/05/22 06:17:23;;;;;;;29.33;21.03;;;15.50;99.90;;;;;;5094396;28;20635;-50
2023/05/22 06:19:48;;;;;;;30.83;21.17;;;15.50;99.90;;;;;;5092974;28;20182;-49
2023/05/22 06:22:14;;;;;;;33.70;21.47;;;15.50;99.90;;;;;;5094327;28;20186;-50
2023/05/22 06:24:40;;;;;;;33.07;21.83;;;15.50;99.90;;;;;;5094388;28;20340;-50
2023/05/22 06:27:05;;;;;;;34.20;21.47;;;15.60;99.90;;;;;;5094816;28;20273;-51
2023/05/22 06:29:31;;;;;;;36.43;21.07;;;15.60;99.90;;;;;;5094356;28;20287;-50
2023/05/22 06:31:57;;;;;;;35.33;22.03;;;15.60;99.90;;;;;;5094162;28;20268;-49
2023/05/22 06:34:23;;;;;;;36.80;22.57;;;15.60;99.90;;;;;;5094205;28;20197;-50
2023/05/22 06:36:51;;;;;;;31.80;22.17;;;15.60;99.90;;;;;;5095795;28;20262;-50
2023/05/22 06:39:17;;;;;;;37.97;23.30;;;15.60;99.90;;;;;;5096008;28;20678;-50
2023/05/22 06:41:43;;;;;;;38.30;23.27;;;15.70;99.90;;;;;;5094693;28;20558;-50
2023/05/22 06:44:11;;;;;;;33.37;22.93;;;15.70;99.90;;;;;;5093973;28;20198;-51
2023/05/22 06:46:36;;;;;;;33.87;22.77;;;15.70;99.90;;;;;;5093946;28;20170;-50
2023/05/22 06:49:02;;;;;;;36.83;24.43;;;15.80;99.90;;;;;;5094114;28;20179;-49
2023/05/22 06:51:28;;;;;;;36.03;24.30;;;15.80;99.90;;;;;;5093881;28;20199;-49
2023/05/22 06:53:55;;;;;;;32.37;22.50;;;15.90;99.90;;;;;;5093925;28;20247;-49
2023/05/22 06:56:21;;;;;;;29.83;21.90;;;15.90;99.90;;;;;;5093421;28;20171;-51
2023/05/22 06:58:47;;;;;;;35.20;22.80;;;16.00;99.90;;;;;;5093650;28;20167;-50
2023/05/22 07:01:12;;;;;;;32.43;23.33;;;16.00;99.90;;;;;;5093669;28;20303;-51
2023/05/22 07:03:38;;;;;;;36.20;22.23;;;16.00;99.90;;;;;;5093546;28;20191;-50
2023/05/22 07:06:04;;;;;;;35.20;22.07;;;16.00;99.90;;;;;;5093831;28;20197;-51
2023/05/22 07:08:30;;;;;;;37.80;24.67;;;16.10;99.90;;;;;;5092257;28;20208;-50
2023/05/22 07:10:55;;;;;;;42.70;27.23;;;16.10;99.90;;;;;;5093710;28;20206;-49
2023/05/22 07:13:22;;;;;;;45.57;27.73;;;16.10;99.90;;;;;;5093648;28;20224;-49
2023/05/22 07:15:47;;;;;;;51.50;29.63;;;16.20;99.90;;;;;;5093629;28;20186;-50
2023/05/22 07:18:14;;;;;;;50.57;28.97;;;16.20;99.90;;;;;;5093409;28;20516;-51
2023/05/22 07:20:39;;;;;;;51.83;30.27;;;16.20;99.90;;;;;;5093430;28;20182;-51
2023/05/22 07:23:06;;;;;;;45.57;30.07;;;16.30;99.90;;;;;;5093545;28;20256;-51
2023/05/22 07:25:31;;;;;;;44.97;26.83;;;16.30;99.90;;;;;;5093387;28;20171;-50
2023/05/22 07:27:57;;;;;;;47.60;29.27;;;16.40;99.90;;;;;;5092042;28;20273;-49
2023/05/22 07:30:23;;;;;;;48.47;28.37;;;16.40;99.90;;;;;;5093163;28;20206;-51
2023/05/22 07:32:49;;;;;;;43.90;26.57;;;16.40;99.90;;;;;;5093230;28;20187;-50
2023/05/22 07:35:14;;;;;;;47.47;28.03;;;16.50;99.90;;;;;;5093267;28;20202;-51
2023/05/22 07:37:40;;;;;;;44.17;26.90;;;16.50;99.90;;;;;;5093247;28;20175;-50
2023/05/22 07:40:06;;;;;;;48.90;27.20;;;16.50;99.90;;;;;;5093210;28;20586;-51
2023/05/22 07:42:33;;;;;;;42.90;27.17;;;16.50;99.90;;;;;;5093397;28;20244;-50
2023/05/22 07:44:59;;;;;;;39.60;25.90;;;16.50;99.90;;;;;;5093944;28;20183;-50
2023/05/22 07:47:24;;;;;;;38.67;25.57;;;16.60;99.90;;;;;;5093086;28;20262;-51
2023/05/22 07:49:50;;;;;;;41.83;27.07;;;16.60;99.90;;;;;;5093049;28;20281;-52
2023/05/22 07:52:15;;;;;;;45.87;27.53;;;16.50;99.90;;;;;;5093102;28;20179;-51
2023/05/22 07:54:41;;;;;;;43.53;26.70;;;16.60;99.90;;;;;;5093008;28;20730;-52
2023/05/22 07:57:06;;;;;;;46.03;28.90;;;16.60;99.90;;;;;;5093603;28;20171;-51
2023/05/22 07:59:33;;;;;;;47.13;26.23;;;16.70;99.90;;;;;;5093201;28;20179;-51
2023/05/22 08:02:00;;;;;;;49.33;30.10;;;16.70;99.90;;;;;;5093260;28;20171;-51
2023/05/22 08:04:26;;;;;;;43.30;26.37;;;16.80;99.90;;;;;;5093133;28;20600;-51
2023/05/22 08:06:51;;;;;;;49.30;29.27;;;16.80;99.90;;;;;;5093117;28;20183;-52
2023/05/22 08:09:17;;;;;;;49.07;28.20;;;16.80;99.90;;;;;;5096012;28;20322;-52
2023/05/22 08:11:43;;;;;;;48.37;29.13;;;16.90;99.90;;;;;;5095413;28;20186;-51
2023/05/22 08:14:09;;;;;;;39.53;27.47;;;16.90;99.90;;;;;;5095315;28;20720;-50
2023/05/22 08:16:34;;;;;;;44.67;27.90;;;16.90;99.90;;;;;;5096881;28;20170;-51
2023/05/22 08:19:00;;;;;;;48.00;28.70;;;17.00;99.90;;;;;;5097038;28;20536;-52
2023/05/22 08:21:25;;;;;;;49.10;28.53;;;17.00;99.90;;;;;;5096865;28;20179;-52
2023/05/22 08:23:51;;;;;;;49.23;28.33;;;17.10;99.90;;;;;;5096614;28;20713;-51
2023/05/22 08:26:16;;;;;;;45.63;27.57;;;17.10;99.90;;;;;;5096277;28;20642;-51
2023/05/22 08:28:43;;;;;;;47.07;29.00;;;17.10;99.90;;;;;;5096379;28;20571;-51
2023/05/22 08:31:12;;;;;;;52.13;28.73;;;17.10;99.90;;;;;;5096513;28;20211;-51
2023/05/22 08:33:38;;;;;;;51.67;28.83;;;17.10;99.90;;;;;;5096218;28;20202;-51
2023/05/22 08:36:04;;;;;;;51.40;29.47;;;17.10;99.90;;;;;;5096313;28;20519;-51
2023/05/22 08:38:30;;;;;;;47.43;29.50;;;17.10;99.90;;;;;;5096129;28;20693;-51
2023/05/22 08:40:57;;;;;;;49.20;29.63;;;17.10;99.90;;;;;;5096019;28;20194;-51
2023/05/22 08:43:23;;;;;;;48.00;29.00;;;17.10;99.90;;;;;;5096207;28;20289;-52
2023/05/22 08:46:02;;;;;;;49.73;29.43;;;17.10;99.90;;;;;;5096335;28;20278;-51
2023/05/22 08:48:30;;;;;;;53.50;31.27;;;17.20;99.90;;;;;;5096380;28;20167;-52
2023/05/22 08:50:57;;;;;;;52.20;30.10;;;17.20;99.90;;;;;;5096064;28;20228;-50
2023/05/22 08:53:26;;;;;;;56.23;30.87;;;17.30;99.90;;;;;;5095865;28;20220;-49
2023/05/22 08:55:52;;;;;;;54.17;32.57;;;17.30;99.90;;;;;;5096063;28;20528;-52
2023/05/22 08:58:18;;;;;;;50.10;29.10;;;17.40;99.90;;;;;;5096594;28;20178;-51
2023/05/22 09:00:44;;;;;;;51.33;31.33;;;17.50;99.90;;;;;;5096102;28;20175;-50
2023/05/22 09:03:13;;;;;;;58.07;32.63;;;17.50;99.90;;;;;;5095752;28;20263;-52
2023/05/22 09:05:40;;;;;;;56.17;32.03;;;17.50;99.90;;;;;;5095962;28;20259;-51
2023/05/22 09:08:09;;;;;;;49.63;30.90;;;17.50;99.90;;;;;;5094385;28;20186;-51
2023/05/22 09:10:34;;;;;;;52.10;32.00;;;17.50;99.90;;;;;;5095589;28;20565;-52
2023/05/22 09:13:02;;;;;;;51.27;31.90;;;17.60;99.90;;;;;;5095793;28;20195;-51
2023/05/22 09:15:30;;;;;;;47.27;29.77;;;17.60;99.90;;;;;;5095463;28;20195;-52
2023/05/22 09:17:55;;;;;;;55.47;30.90;;;17.70;99.90;;;;;;5096178;28;20564;-51
2023/05/22 09:20:21;;;;;;;53.00;31.97;;;17.70;99.90;;;;;;5094505;28;20186;-50
2023/05/22 09:22:47;;;;;;;54.80;31.50;;;17.80;99.90;;;;;;5095152;28;20209;-50
2023/05/22 09:25:17;;;;;;;53.73;33.10;;;17.80;99.90;;;;;;5095270;28;20174;-52
2023/05/22 09:27:47;;;;;;;51.17;31.67;;;17.80;99.90;;;;;;5095233;28;20163;-50
2023/05/22 09:30:16;;;;;;;63.57;34.07;;;17.90;99.90;;;;;;5095177;28;20202;-49
2023/05/22 09:32:43;;;;;;;56.13;33.33;;;17.90;99.90;;;;;;5095374;28;20273;-51
2023/05/22 09:35:08;;;;;;;59.47;33.40;;;17.90;99.90;;;;;;5095352;28;20171;-51
2023/05/22 09:37:35;;;;;;;55.70;32.07;;;17.90;99.90;;;;;;5095035;28;20174;-49
2023/05/22 09:40:05;;;;;;;59.70;33.70;;;18.00;99.90;;;;;;5094931;28;20286;-52
2023/05/22 09:42:34;;;;;;;54.93;32.10;;;18.00;99.90;;;;;;5094822;28;20186;-51
2023/05/22 09:45:05;;;;;;;57.53;34.37;;;18.10;99.90;;;;;;5095086;28;20228;-52
2023/05/22 09:47:32;;;;;;;52.70;32.90;;;18.00;99.90;;;;;;5095031;28;20179;-51
2023/05/22 09:49:59;;;;;;;54.20;31.93;;;18.10;99.90;;;;;;5095228;28;20597;-52
2023/05/22 09:52:33;;;;;;;48.40;32.30;;;18.20;99.90;;;;;;5094638;28;20684;-51
2023/05/22 09:55:03;;;;;;;52.07;30.87;;;18.20;99.90;;;;;;5094807;28;20614;-51
2023/05/22 09:57:31;;;;;;;42.97;28.60;;;18.40;99.90;;;;;;5094860;28;20224;-46
2023/05/22 09:59:59;;;;;;;43.43;28.90;;;18.40;99.90;;;;;;5094887;28;20175;-46
2023/05/22 10:02:26;;;;;;;43.80;29.03;;;18.40;99.90;;;;;;5094446;28;20171;-46
2023/05/22 10:04:53;;;;;;;46.57;30.90;;;18.50;99.90;;;;;;5094726;28;20210;-45
2023/05/22 10:07:21;;;;;;;47.57;30.73;;;18.60;99.90;;;;;;5094713;28;20198;-46
2023/05/22 10:09:51;;;;;;;45.60;29.37;;;18.70;99.90;;;;;;5094608;28;20206;-45
2023/05/22 10:12:22;;;;;;;45.10;28.53;;;18.80;99.90;;;;;;5094417;28;20669;-45
2023/05/22 10:14:47;;;;;;;44.03;28.63;;;18.80;99.90;;;;;;5094884;28;20570;-46
2023/05/22 10:17:15;;;;;;;43.30;28.87;;;19.00;99.90;;;;;;5094565;28;20175;-46
2023/05/22 10:19:41;;;;;;;40.87;28.53;;;19.00;99.90;;;;;;5094285;28;20658;-46
2023/05/22 10:22:07;;;;;;;44.93;29.63;;;19.10;99.90;;;;;;5096092;28;20205;-46
2023/05/22 10:24:33;;;;;;;48.90;29.60;;;19.30;99.90;;;;;;5105280;28;20194;-47
2023/05/22 10:26:59;;;;;;;44.30;29.27;;;19.30;99.90;;;;;;5104917;28;20179;-46
2023/05/22 10:29:34;;;;;;;42.80;28.53;;;19.40;99.90;;;;;;5096088;28;20179;-46
2023/05/22 10:32:16;;;;;;;45.03;31.13;;;19.50;99.90;;;;;;5094032;28;20212;-44
2023/05/22 10:34:57;;;;;;;43.90;29.47;;;19.60;99.90;;;;;;5094118;28;20199;-46
2023/05/22 10:37:40;;;;;;;44.20;28.50;;;19.70;99.90;;;;;;5094577;28;20158;-46
2023/05/22 10:40:17;;;;;;;44.37;31.37;;;19.70;99.90;;;;;;5094001;28;20199;-45
2023/05/22 10:42:43;;;;;;;45.70;29.87;;;19.70;99.90;;;;;;5094062;28;20267;-46
2023/05/22 10:45:09;;;;;;;48.90;30.83;;;19.70;99.90;;;;;;5094066;28;20186;-47
2023/05/22 10:47:35;;;;;;;47.90;30.30;;;19.80;99.90;;;;;;5093930;28;20198;-46
2023/05/22 10:50:03;;;;;;;44.10;30.77;;;19.80;99.90;;;;;;5094036;28;20677;-46
2023/05/22 10:52:29;;;;;;;43.77;28.00;;;19.90;99.90;;;;;;5093557;28;20170;-47
2023/05/22 10:54:58;;;;;;;46.07;29.07;;;19.90;99.90;;;;;;5093854;28;20228;-47
2023/05/22 10:57:24;;;;;;;47.83;29.47;;;19.90;99.90;;;;;;5094156;28;20632;-46
2023/05/22 10:59:50;;;;;;;46.73;29.37;;;20.00;99.90;;;;;;5093875;28;20190;-45
2023/05/22 11:02:20;;;;;;;45.73;27.90;;;20.00;99.90;;;;;;5092232;28;20401;-47
2023/05/22 11:04:45;;;;;;;48.27;29.73;;;20.10;99.90;;;;;;5093546;28;20174;-46
2023/05/22 11:07:13;;;;;;;48.60;29.87;;;20.10;99.90;;;;;;5093511;28;20304;-46
2023/05/22 11:09:44;;;;;;;52.37;30.50;;;20.20;99.90;;;;;;5093670;28;20183;-46
2023/05/22 11:12:15;;;;;;;51.60;29.83;;;20.10;99.90;;;;;;5093721;28;20160;-45
2023/05/22 11:14:41;;;;;;;51.93;31.63;;;20.10;99.90;;;;;;5093338;28;20567;-46
2023/05/22 11:17:07;;;;;;;49.30;30.40;;;20.10;99.90;;;;;;5093405;28;20175;-47
2023/05/22 11:19:33;;;;;;;50.47;30.33;;;20.10;99.90;;;;;;5093683;28;20531;-46
2023/05/22 11:22:03;;;;;;;48.53;30.20;;;20.10;99.90;;;;;;5093320;28;20209;-45
2023/05/22 11:24:33;;;;;;;51.60;32.17;;;20.10;99.90;;;;;;5093587;28;20202;-46
2023/05/22 11:27:08;;;;;;;49.80;30.90;;;20.10;99.90;;;;;;5093618;28;20179;-46
2023/05/22 11:29:34;;;;;;;52.80;31.27;;;20.10;99.90;;;;;;5093277;28;20247;-46
2023/05/22 11:32:00;;;;;;;53.47;31.83;;;20.10;99.90;;;;;;5093591;28;20256;-46
2023/05/22 11:34:27;;;;;;;52.47;31.80;;;20.10;99.90;;;;;;5093230;28;20281;-47
2023/05/22 11:36:57;;;;;;;56.57;34.43;;;20.10;99.90;;;;;;5091943;28;20232;-47
2023/05/22 11:39:23;;;;;;;59.83;34.07;;;20.10;99.90;;;;;;5093251;28;20299;-46
2023/05/22 11:41:48;;;;;;;61.43;35.60;;;20.30;99.90;;;;;;5093110;28;20184;-46
2023/05/22 11:44:14;;;;;;;59.23;33.27;;;20.30;99.90;;;;;;5096227;28;20273;-46
2023/05/22 11:46:40;;;;;;;63.73;34.63;;;20.40;99.90;;;;;;5097370;28;20174;-47
2023/05/22 11:49:11;;;;;;;54.63;33.27;;;20.60;99.90;;;;;;5097156;28;20171;-45
2023/05/22 11:51:39;;;;;;;53.50;33.37;;;20.60;99.90;;;;;;5097285;28;20267;-47
2023/05/22 11:54:05;;;;;;;56.07;33.73;;;20.70;99.90;;;;;;5095830;28;20611;-46
2023/05/22 11:56:31;;;;;;;54.73;32.83;;;20.80;99.90;;;;;;5096926;28;20168;-45
2023/05/22 11:58:56;;;;;;;59.80;34.20;;;20.90;99.90;;;;;;5097222;28;20208;-47
2023/05/22 12:01:22;;;;;;;64.80;35.93;;;21.00;99.90;;;;;;5097898;28;20179;-46
2023/05/22 12:03:47;;;;;;;63.87;36.90;;;21.00;99.90;;;;;;5096791;28;20274;-47
2023/05/22 12:06:13;;;;;;;62.40;36.30;;;21.10;99.90;;;;;;5096806;28;20182;-46
2023/05/22 12:08:39;;;;;;;56.07;34.20;;;21.20;99.90;;;;;;5097033;28;20179;-46
2023/05/22 12:11:06;;;;;;;60.50;34.40;;;21.40;99.90;;;;;;5096794;28;20191;-46
2023/05/22 12:13:31;;;;;;;61.17;34.90;;;21.50;99.90;;;;;;5096751;28;20191;-46
2023/05/22 12:15:59;;;;;;;62.83;36.10;;;21.70;99.90;;;;;;5095411;28;20522;-47
2023/05/22 12:18:25;;;;;;;61.80;33.83;;;21.70;99.90;;;;;;5095296;28;20175;-46
2023/05/22 12:20:53;;;;;;;61.80;36.10;;;21.80;99.90;;;;;;5096781;28;20205;-46
2023/05/22 12:23:23;;;;;;;68.07;34.90;;;21.90;99.90;;;;;;5096353;28;20668;-45
2023/05/22 12:25:56;;;;;;;56.20;34.47;;;22.00;99.90;;;;;;5096762;28;20179;-46
2023/05/22 12:28:22;;;;;;;51.20;30.97;;;22.10;99.90;;;;;;5096556;28;20270;-47